Time;durP1;ratioP1;P1;durP2;ratioP2;P2;SDS_P1;SDS_P2;PMS_P1;PMS_P2;Temp;Humidity;BMP_temperature;BMP_pressure;BME280_temperature;BME280_humidity;BME280_pressure;Samples;Min_cycle;Max_cycle;Signal;HPM_P1;HPM_P2
2022/09/09 00:02:07;;;;;;;5.40;2.33;;;16.10;99.90;;;;;;4989821;28;20583;-36
2022/09/09 00:04:36;;;;;;;5.35;2.83;;;16.10;99.90;;;;;;4989324;28;20534;-36
2022/09/09 00:07:16;;;;;;;7.25;2.60;;;16.10;99.90;;;;;;4988926;28;20100;-36
2022/09/09 00:10:15;;;;;;;7.55;2.63;;;16.00;99.90;;;;;;4986786;28;20049;-36
2022/09/09 00:12:57;;;;;;;2.58;1.42;;;16.00;99.90;;;;;;4984523;28;20507;-37
2022/09/09 00:15:28;;;;;;;6.00;2.45;;;16.00;99.90;;;;;;4984301;28;20518;-36
2022/09/09 00:18:11;;;;;;;5.18;2.10;;;16.00;99.90;;;;;;4987803;28;20069;-36
2022/09/09 00:20:47;;;;;;;6.05;2.47;;;16.00;99.90;;;;;;4987246;28;20125;-37
2022/09/09 00:23:29;;;;;;;4.43;2.53;;;16.10;99.90;;;;;;4986175;28;20039;-35
2022/09/09 00:26:23;;;;;;;7.00;2.83;;;16.00;99.90;;;;;;4990091;28;20038;-36
2022/09/09 00:29:07;;;;;;;4.85;2.47;;;16.00;99.90;;;;;;4985182;28;20030;-35
2022/09/09 00:31:33;;;;;;;6.07;2.95;;;16.00;99.90;;;;;;4989104;28;20145;-37
2022/09/09 00:34:09;;;;;;;5.80;2.95;;;16.10;99.90;;;;;;4989304;28;20113;-38
2022/09/09 00:36:36;;;;;;;6.25;3.00;;;16.10;99.90;;;;;;4990228;28;20031;-38
2022/09/09 00:39:03;;;;;;;6.10;2.92;;;16.10;99.90;;;;;;4991609;28;20084;-38
2022/09/09 00:41:40;;;;;;;5.38;3.03;;;16.10;99.90;;;;;;4989154;28;20088;-37
2022/09/09 00:44:20;;;;;;;5.68;3.63;;;16.20;99.90;;;;;;4986561;28;20053;-37
2022/09/09 00:47:07;;;;;;;6.57;3.58;;;16.10;99.90;;;;;;4986634;28;20065;-37
2022/09/09 00:49:51;;;;;;;7.43;3.60;;;16.10;99.90;;;;;;4988055;28;20077;-38
2022/09/09 00:52:34;;;;;;;6.10;3.22;;;16.10;99.90;;;;;;4987438;28;20057;-37
2022/09/09 00:55:15;;;;;;;7.80;3.80;;;16.10;99.90;;;;;;4987704;28;20094;-38
2022/09/09 00:57:42;;;;;;;5.75;3.25;;;16.10;99.90;;;;;;4983458;28;20060;-37
2022/09/09 01:00:27;;;;;;;5.50;3.40;;;16.10;99.90;;;;;;4985752;28;20046;-36
2022/09/09 01:03:29;;;;;;;7.63;3.15;;;16.10;99.90;;;;;;4985748;28;20417;-37
2022/09/09 01:06:28;;;;;;;7.70;3.67;;;16.00;99.90;;;;;;4976026;28;20050;-39
2022/09/09 01:09:06;;;;;;;6.65;3.35;;;15.90;99.90;;;;;;4986415;28;20049;-38
2022/09/09 01:12:08;;;;;;;4.60;2.38;;;15.90;99.90;;;;;;4987335;28;20050;-38
2022/09/09 01:14:42;;;;;;;10.57;3.10;;;15.90;99.90;;;;;;4985882;28;20882;-37
2022/09/09 01:17:17;;;;;;;4.40;2.65;;;15.80;99.90;;;;;;4988396;28;20045;-43
2022/09/09 01:19:42;;;;;;;5.18;2.55;;;15.80;99.90;;;;;;4988979;28;20517;-38
2022/09/09 01:22:52;;;;;;;7.35;2.42;;;15.80;99.90;;;;;;4985870;28;20085;-38
2022/09/09 01:25:18;;;;;;;4.50;2.22;;;15.80;99.90;;;;;;4986209;28;20035;-37
2022/09/09 01:27:46;;;;;;;7.93;2.70;;;15.80;99.90;;;;;;4986970;28;20041;-39
2022/09/09 01:30:14;;;;;;;5.53;2.53;;;15.80;99.90;;;;;;4986477;28;20109;-38
2022/09/09 01:32:53;;;;;;;5.45;2.20;;;15.70;99.90;;;;;;4983382;28;20076;-38
2022/09/09 01:35:30;;;;;;;3.05;2.00;;;15.80;99.90;;;;;;4982735;28;20406;-37
2022/09/09 01:37:56;;;;;;;6.07;2.20;;;15.80;99.90;;;;;;4984695;28;20046;-38
2022/09/09 01:40:22;;;;;;;4.05;2.13;;;15.80;99.90;;;;;;4985177;28;20506;-38
2022/09/09 01:42:48;;;;;;;4.55;2.08;;;15.80;99.90;;;;;;4987296;28;20100;-38
2022/09/09 01:45:14;;;;;;;3.92;1.98;;;15.70;99.90;;;;;;4986644;28;20439;-39
2022/09/09 01:47:41;;;;;;;4.80;2.13;;;15.70;99.90;;;;;;4986946;28;21378;-40
2022/09/09 01:50:11;;;;;;;3.53;2.13;;;15.70;99.90;;;;;;4988332;28;20042;-38
2022/09/09 01:52:37;;;;;;;7.25;2.17;;;15.70;99.90;;;;;;4984238;28;20510;-38
2022/09/09 01:55:03;;;;;;;5.93;2.30;;;15.60;99.90;;;;;;4988291;28;20045;-36
2022/09/09 01:57:48;;;;;;;4.05;1.67;;;15.70;99.90;;;;;;4988011;28;20408;-35
2022/09/09 02:00:14;;;;;;;3.92;1.95;;;15.70;99.90;;;;;;4986186;28;20747;-36
2022/09/09 02:03:26;;;;;;;3.90;1.52;;;15.70;99.90;;;;;;4988057;28;20125;-36
2022/09/09 02:06:13;;;;;;;4.20;1.70;;;15.70;99.90;;;;;;4982317;28;20436;-36
2022/09/09 02:08:46;;;;;;;4.07;2.17;;;15.70;99.90;;;;;;4985550;28;20034;-37
2022/09/09 02:11:18;;;;;;;3.13;1.55;;;15.70;99.90;;;;;;4989880;28;20096;-37
2022/09/09 02:13:47;;;;;;;4.20;2.17;;;15.60;99.90;;;;;;4984420;28;20046;-37
2022/09/09 02:16:37;;;;;;;4.38;2.20;;;15.60;99.90;;;;;;4987113;28;20562;-35
2022/09/09 02:19:25;;;;;;;5.50;1.95;;;15.60;99.90;;;;;;4988176;28;20070;-36
2022/09/09 02:21:53;;;;;;;4.68;2.35;;;15.60;99.90;;;;;;4987830;28;20065;-36
2022/09/09 02:24:19;;;;;;;5.93;2.45;;;15.60;99.90;;;;;;4986489;28;20038;-46
2022/09/09 02:26:49;;;;;;;3.13;1.67;;;15.60;99.90;;;;;;4986371;28;20113;-35
2022/09/09 02:29:22;;;;;;;5.60;2.35;;;15.60;99.90;;;;;;4985254;28;20045;-36
2022/09/09 02:31:49;;;;;;;4.30;1.98;;;15.60;99.90;;;;;;4989056;28;20038;-36
2022/09/09 02:34:18;;;;;;;2.40;1.40;;;15.60;99.90;;;;;;4986904;28;20061;-37
2022/09/09 02:36:47;;;;;;;4.75;2.17;;;15.60;99.90;;;;;;4987125;28;20499;-37
2022/09/09 02:39:13;;;;;;;4.90;2.50;;;15.60;99.90;;;;;;4987331;28;20140;-36
2022/09/09 02:41:41;;;;;;;4.63;1.83;;;15.60;99.90;;;;;;4985988;28;20077;-36
2022/09/09 02:44:18;;;;;;;3.35;2.25;;;15.60;99.90;;;;;;4988510;28;20891;-36
2022/09/09 02:47:04;;;;;;;5.80;2.35;;;15.60;99.90;;;;;;4986160;28;20117;-37
2022/09/09 02:49:39;;;;;;;4.35;2.10;;;15.60;99.90;;;;;;4991937;28;20041;-37
2022/09/09 02:52:15;;;;;;;6.47;2.35;;;15.60;99.90;;;;;;4989994;28;20050;-36
2022/09/09 02:54:43;;;;;;;4.63;2.25;;;15.60;99.90;;;;;;4990535;28;20034;-37
2022/09/09 02:57:12;;;;;;;4.68;2.38;;;15.60;99.90;;;;;;4989210;28;20035;-37
2022/09/09 02:59:39;;;;;;;4.45;1.83;;;15.60;99.90;;;;;;4991598;28;20488;-37
2022/09/09 03:02:06;;;;;;;4.45;2.28;;;15.60;99.90;;;;;;4989143;28;20109;-37
2022/09/09 03:04:31;;;;;;;5.03;2.22;;;15.60;99.90;;;;;;4989473;28;20459;-37
2022/09/09 03:06:58;;;;;;;5.90;2.20;;;15.60;99.90;;;;;;4990236;28;20069;-36
2022/09/09 03:09:24;;;;;;;4.60;1.73;;;15.50;99.90;;;;;;4990702;28;20165;-36
2022/09/09 03:11:50;;;;;;;3.75;2.10;;;15.50;99.90;;;;;;4988970;28;20042;-36
2022/09/09 03:14:16;;;;;;;4.38;2.33;;;15.50;99.90;;;;;;4988334;28;20042;-36
2022/09/09 03:16:46;;;;;;;4.13;2.03;;;15.50;99.90;;;;;;4983462;28;20042;-36
2022/09/09 03:19:11;;;;;;;4.60;2.20;;;15.50;99.90;;;;;;4991321;28;20046;-36
2022/09/09 03:21:37;;;;;;;6.35;2.30;;;15.40;99.90;;;;;;5005760;28;20128;-36
2022/09/09 03:24:03;;;;;;;4.07;1.73;;;15.40;99.90;;;;;;4989292;28;20438;-37
2022/09/09 03:26:30;;;;;;;8.35;2.20;;;15.40;99.90;;;;;;4990012;28;20510;-35
2022/09/09 03:28:56;;;;;;;7.35;1.90;;;15.30;99.90;;;;;;4988015;28;20042;-36
2022/09/09 03:31:21;;;;;;;5.38;2.30;;;15.40;99.90;;;;;;4991458;28;20189;-36
2022/09/09 03:33:47;;;;;;;3.42;2.00;;;15.30;99.90;;;;;;4989088;28;20491;-36
2022/09/09 03:36:14;;;;;;;5.15;2.22;;;15.20;99.90;;;;;;4989181;28;20585;-35
2022/09/09 03:38:41;;;;;;;3.95;2.30;;;15.20;99.90;;;;;;4990649;28;20100;-35
2022/09/09 03:41:07;;;;;;;2.95;1.70;;;15.20;99.90;;;;;;4986696;28;20074;-36
2022/09/09 03:43:33;;;;;;;3.97;2.17;;;15.10;99.90;;;;;;4989516;28;20054;-36
2022/09/09 03:45:59;;;;;;;3.55;1.90;;;15.10;99.90;;;;;;4989668;28;20035;-37
2022/09/09 03:48:27;;;;;;;5.75;2.05;;;15.00;99.90;;;;;;4985308;28;20042;-36
2022/09/09 03:50:55;;;;;;;5.78;2.05;;;15.00;99.90;;;;;;4988193;28;20407;-36
2022/09/09 03:53:24;;;;;;;3.10;1.85;;;15.00;99.90;;;;;;4987324;28;20049;-36
2022/09/09 03:55:54;;;;;;;5.78;2.17;;;14.90;99.90;;;;;;4990962;28;20570;-36
2022/09/09 03:58:21;;;;;;;3.90;2.13;;;14.90;99.90;;;;;;4987458;28;20057;-36
2022/09/09 04:00:55;;;;;;;5.78;1.80;;;14.80;99.90;;;;;;4990157;28;20042;-36
2022/09/09 04:03:22;;;;;;;4.60;2.30;;;14.80;99.90;;;;;;4987888;28;20035;-37
2022/09/09 04:05:49;;;;;;;3.92;2.40;;;14.80;99.90;;;;;;4988371;28;20049;-36
2022/09/09 04:08:15;;;;;;;4.90;2.55;;;14.80;99.90;;;;;;4988539;28;20038;-36
2022/09/09 04:10:41;;;;;;;5.57;2.17;;;14.80;99.90;;;;;;4989324;28;20392;-37
2022/09/09 04:13:07;;;;;;;4.88;1.80;;;14.70;99.90;;;;;;4991055;28;20042;-37
2022/09/09 04:15:35;;;;;;;5.07;2.45;;;14.70;99.90;;;;;;4988953;28;20038;-37
2022/09/09 04:18:01;;;;;;;4.57;2.00;;;14.70;99.90;;;;;;4984834;28;20034;-36
2022/09/09 04:20:26;;;;;;;4.63;2.35;;;14.70;99.90;;;;;;4987875;28;20042;-36
2022/09/09 04:22:52;;;;;;;4.00;2.13;;;14.70;99.90;;;;;;4989962;28;20399;-36
2022/09/09 04:25:18;;;;;;;4.70;2.42;;;14.70;99.90;;;;;;4989215;28;20030;-37
2022/09/09 04:27:44;;;;;;;6.75;2.30;;;14.70;99.90;;;;;;4990359;28;20105;-37
2022/09/09 04:30:10;;;;;;;4.45;2.47;;;14.60;99.90;;;;;;4986961;28;20077;-37
2022/09/09 04:32:36;;;;;;;4.60;2.60;;;14.60;99.90;;;;;;4989911;28;20096;-38
2022/09/09 04:35:02;;;;;;;5.55;2.40;;;14.60;99.90;;;;;;4988244;28;20133;-37
2022/09/09 04:37:28;;;;;;;4.60;2.22;;;14.70;99.90;;;;;;4990700;28;20484;-37
2022/09/09 04:39:54;;;;;;;7.35;2.80;;;14.70;99.90;;;;;;4990084;28;20045;-37
2022/09/09 04:42:19;;;;;;;6.38;2.85;;;14.70;99.90;;;;;;4985050;28;20547;-37
2022/09/09 04:44:45;;;;;;;4.32;2.20;;;14.70;99.90;;;;;;4989785;28;20050;-39
2022/09/09 04:47:11;;;;;;;4.05;2.25;;;14.70;99.90;;;;;;4985515;28;20538;-37
2022/09/09 04:49:38;;;;;;;4.68;2.70;;;14.70;99.90;;;;;;4988759;28;20125;-37
2022/09/09 04:52:04;;;;;;;6.78;3.08;;;14.70;99.90;;;;;;4988531;28;20046;-37
2022/09/09 04:54:29;;;;;;;5.95;3.30;;;14.70;99.90;;;;;;4988004;28;20046;-38
2022/09/09 04:56:55;;;;;;;4.15;2.85;;;14.70;99.90;;;;;;4988859;28;20038;-37
2022/09/09 04:59:21;;;;;;;5.30;3.45;;;14.70;99.90;;;;;;4989003;28;20034;-37
2022/09/09 05:01:49;;;;;;;5.78;3.10;;;14.70;99.90;;;;;;4986885;28;20119;-38
2022/09/09 05:04:15;;;;;;;5.40;3.33;;;14.70;99.90;;;;;;4987191;28;20058;-37
2022/09/09 05:06:42;;;;;;;5.63;3.30;;;14.60;99.90;;;;;;4988385;28;20052;-37
2022/09/09 05:09:08;;;;;;;5.53;3.42;;;14.70;99.90;;;;;;4987650;28;20043;-37
2022/09/09 05:11:38;;;;;;;7.65;3.95;;;14.60;99.90;;;;;;4987426;28;20522;-37
2022/09/09 05:14:04;;;;;;;6.35;3.60;;;14.70;99.90;;;;;;4989663;28;20054;-38
2022/09/09 05:16:30;;;;;;;7.47;3.47;;;14.60;99.90;;;;;;4986918;28;20069;-38
2022/09/09 05:18:56;;;;;;;4.93;3.40;;;14.60;99.90;;;;;;4987475;28;20045;-41
2022/09/09 05:21:25;;;;;;;7.90;3.92;;;14.60;99.90;;;;;;4989440;28;20035;-37
2022/09/09 05:23:51;;;;;;;6.65;3.22;;;14.60;99.90;;;;;;4984984;28;20133;-38
2022/09/09 05:26:21;;;;;;;5.28;3.30;;;14.60;99.90;;;;;;4987378;28;20066;-38
2022/09/09 05:28:47;;;;;;;5.25;3.17;;;14.60;99.90;;;;;;4986572;28;20073;-39
2022/09/09 05:31:14;;;;;;;6.10;3.40;;;14.60;99.90;;;;;;4985349;28;20082;-36
2022/09/09 05:33:42;;;;;;;5.07;3.53;;;14.50;99.90;;;;;;4978868;28;20042;-37
2022/09/09 05:36:13;;;;;;;4.45;2.65;;;14.60;99.90;;;;;;4982096;28;20581;-37
2022/09/09 05:38:39;;;;;;;7.45;3.05;;;14.60;99.90;;;;;;4986865;28;20070;-39
2022/09/09 05:41:06;;;;;;;4.57;2.75;;;14.50;99.90;;;;;;4990922;28;20034;-39
2022/09/09 05:43:32;;;;;;;5.10;3.45;;;14.50;99.90;;;;;;4989034;28;20045;-37
2022/09/09 05:46:09;;;;;;;4.90;3.33;;;14.50;99.90;;;;;;4985651;28;20046;-40
2022/09/09 05:48:39;;;;;;;4.50;3.13;;;14.60;99.90;;;;;;4983977;28;20061;-37
2022/09/09 05:51:08;;;;;;;5.78;2.55;;;14.50;99.90;;;;;;4988338;28;20164;-40
2022/09/09 05:53:34;;;;;;;5.65;3.00;;;14.60;99.90;;;;;;4983795;28;20096;-37
2022/09/09 05:56:06;;;;;;;4.10;2.78;;;14.60;99.90;;;;;;4981118;28;20038;-38
2022/09/09 05:58:32;;;;;;;4.07;2.63;;;14.60;99.90;;;;;;4983184;28;20488;-38
2022/09/09 06:01:10;;;;;;;5.00;2.80;;;14.60;99.90;;;;;;4981347;28;20078;-38
2022/09/09 06:03:37;;;;;;;6.05;3.15;;;14.60;99.90;;;;;;4983007;28;20057;-37
2022/09/09 06:06:06;;;;;;;7.25;3.08;;;14.70;99.90;;;;;;4987448;28;20135;-36
2022/09/09 06:08:38;;;;;;;5.55;3.08;;;14.70;99.90;;;;;;4986015;28;20090;-39
2022/09/09 06:11:06;;;;;;;6.13;2.92;;;14.70;99.90;;;;;;4981800;28;20158;-39
2022/09/09 06:13:32;;;;;;;5.90;2.90;;;14.70;99.90;;;;;;4983999;28;20058;-37
2022/09/09 06:15:59;;;;;;;6.00;2.67;;;14.80;99.90;;;;;;4982218;28;20157;-37
2022/09/09 06:18:25;;;;;;;5.35;3.15;;;14.80;99.90;;;;;;4981652;28;20053;-38
2022/09/09 06:21:06;;;;;;;5.03;2.50;;;14.80;99.90;;;;;;4982119;28;20038;-37
2022/09/09 06:23:35;;;;;;;5.07;2.65;;;14.80;99.90;;;;;;4984787;28;20102;-38
2022/09/09 06:26:11;;;;;;;7.13;2.88;;;14.90;99.90;;;;;;4981971;28;20815;-38
2022/09/09 06:28:37;;;;;;;5.68;2.50;;;15.00;99.90;;;;;;4985008;28;20454;-38
2022/09/09 06:31:05;;;;;;;4.60;2.72;;;15.00;99.90;;;;;;4985888;28;20073;-38
2022/09/09 06:33:39;;;;;;;4.32;2.63;;;15.00;99.90;;;;;;4985578;28;20042;-38
2022/09/09 06:36:05;;;;;;;5.10;2.75;;;15.10;99.90;;;;;;4984611;28;20052;-38
2022/09/09 06:38:31;;;;;;;5.20;2.58;;;15.10;99.90;;;;;;4983573;28;20045;-38
2022/09/09 06:40:58;;;;;;;5.43;3.10;;;15.10;99.90;;;;;;4997087;28;20048;-35
2022/09/09 06:43:28;;;;;;;4.63;2.60;;;15.10;99.90;;;;;;4983198;28;20038;-35
2022/09/09 06:46:02;;;;;;;4.00;2.40;;;15.00;99.90;;;;;;4986649;28;20125;-36
2022/09/09 06:48:28;;;;;;;6.43;2.97;;;15.00;99.90;;;;;;4984775;28;20073;-37
2022/09/09 06:51:11;;;;;;;5.90;2.60;;;15.00;99.90;;;;;;4988052;28;20049;-37
2022/09/09 06:53:37;;;;;;;4.70;2.42;;;15.00;99.90;;;;;;4986653;28;20074;-36
2022/09/09 06:56:28;;;;;;;6.82;3.00;;;15.00;99.90;;;;;;4985393;28;20042;-40
2022/09/09 06:58:56;;;;;;;7.03;3.13;;;15.10;99.90;;;;;;4979230;28;20507;-38
2022/09/09 07:01:24;;;;;;;5.55;2.63;;;15.10;99.90;;;;;;4988452;28;20065;-37
2022/09/09 07:03:52;;;;;;;6.43;3.13;;;15.20;99.90;;;;;;4987730;28;20050;-37
2022/09/09 07:06:31;;;;;;;3.88;1.98;;;15.30;99.90;;;;;;4984696;28;20177;-35
2022/09/09 07:08:59;;;;;;;7.97;2.78;;;15.30;99.90;;;;;;4991692;28;20049;-37
2022/09/09 07:11:28;;;;;;;6.88;3.22;;;15.40;99.90;;;;;;4986226;28;20058;-36
2022/09/09 07:13:54;;;;;;;5.55;2.75;;;15.50;99.90;;;;;;4987347;28;20057;-39
2022/09/09 07:16:23;;;;;;;6.55;2.95;;;15.50;99.90;;;;;;4985663;28;20034;-37
2022/09/09 07:18:50;;;;;;;6.32;2.53;;;15.50;99.90;;;;;;4986052;28;20077;-38
2022/09/09 07:21:16;;;;;;;4.05;2.67;;;15.50;99.90;;;;;;4988051;28;20042;-38
2022/09/09 07:23:43;;;;;;;4.60;2.40;;;15.50;99.90;;;;;;4988012;28;20069;-37
2022/09/09 07:26:20;;;;;;;7.25;2.83;;;15.60;99.90;;;;;;4987657;28;20054;-38
2022/09/09 07:28:47;;;;;;;7.10;2.50;;;15.60;99.90;;;;;;4982494;28;20042;-37
2022/09/09 07:31:18;;;;;;;7.60;2.83;;;15.60;99.90;;;;;;4986471;28;20042;-37
2022/09/09 07:33:45;;;;;;;6.37;2.87;;;15.70;99.90;;;;;;4989226;28;20071;-38
2022/09/09 07:36:25;;;;;;;5.80;2.70;;;15.70;99.90;;;;;;4989889;28;20565;-37
2022/09/09 07:38:57;;;;;;;5.82;2.30;;;15.70;99.90;;;;;;4988060;28;20112;-37
2022/09/09 07:41:27;;;;;;;5.03;2.70;;;15.60;99.90;;;;;;4989179;28;20038;-37
2022/09/09 07:43:56;;;;;;;6.28;3.00;;;15.60;99.90;;;;;;4992396;28;20503;-38
2022/09/09 07:46:24;;;;;;;6.38;3.05;;;15.60;99.90;;;;;;4989833;28;20146;-42
2022/09/09 07:48:52;;;;;;;5.32;2.75;;;15.70;99.90;;;;;;4989938;28;20104;-38
2022/09/09 07:51:27;;;;;;;6.82;3.00;;;15.80;99.90;;;;;;4989561;28;20499;-38
2022/09/09 07:53:58;;;;;;;10.15;3.13;;;15.90;99.90;;;;;;4990376;28;20079;-38
2022/09/09 07:56:26;;;;;;;6.43;2.60;;;16.00;99.90;;;;;;4986027;28;20046;-38
2022/09/09 07:58:53;;;;;;;6.68;2.47;;;16.00;99.90;;;;;;4986397;28;20100;-38
2022/09/09 08:01:27;;;;;;;4.80;2.33;;;16.10;99.90;;;;;;4984113;28;20042;-36
2022/09/09 08:03:59;;;;;;;5.78;2.63;;;16.20;99.90;;;;;;4980569;28;21170;-37
2022/09/09 08:06:26;;;;;;;4.97;2.72;;;16.30;99.90;;;;;;4983082;28;20061;-37
2022/09/09 08:08:54;;;;;;;6.05;2.67;;;16.40;99.90;;;;;;4990168;28;20085;-37
2022/09/09 08:11:22;;;;;;;5.57;2.47;;;16.60;99.90;;;;;;4987076;28;20373;-37
2022/09/09 08:13:50;;;;;;;8.88;2.95;;;16.80;99.90;;;;;;4985553;28;20070;-37
2022/09/09 08:16:18;;;;;;;8.25;3.38;;;16.80;99.90;;;;;;4988519;28;20058;-36
2022/09/09 08:18:44;;;;;;;5.00;2.75;;;17.00;99.90;;;;;;4988736;28;20050;-36
2022/09/09 08:21:17;;;;;;;6.82;2.67;;;17.00;99.90;;;;;;4984010;28;20047;-36
2022/09/09 08:23:45;;;;;;;7.00;2.38;;;17.00;99.90;;;;;;4988294;28;20128;-36
2022/09/09 08:26:15;;;;;;;5.55;2.13;;;17.10;99.90;;;;;;4986107;28;20043;-37
2022/09/09 08:28:42;;;;;;;7.22;2.22;;;17.20;99.90;;;;;;4982638;28;20172;-35
2022/09/09 08:31:08;;;;;;;6.63;2.83;;;17.20;99.90;;;;;;4989546;28;20096;-37
2022/09/09 08:33:33;;;;;;;6.28;2.05;;;17.40;99.90;;;;;;4990543;28;20434;-38
2022/09/09 08:35:59;;;;;;;6.50;2.03;;;17.50;99.90;;;;;;4989894;28;20034;-36
2022/09/09 08:38:25;;;;;;;5.72;2.63;;;17.60;99.90;;;;;;4983032;28;20042;-36
2022/09/09 08:40:59;;;;;;;9.30;2.65;;;17.60;99.90;;;;;;4986629;28;20037;-36
2022/09/09 08:43:27;;;;;;;7.95;2.38;;;17.50;99.90;;;;;;4986316;28;20419;-36
2022/09/09 08:46:09;;;;;;;5.28;2.33;;;17.40;99.90;;;;;;4975947;28;20070;-36
2022/09/09 08:48:54;;;;;;;4.43;2.03;;;17.50;99.90;;;;;;4986794;28;20046;-36
2022/09/09 08:51:20;;;;;;;6.70;2.17;;;17.50;99.90;;;;;;4978044;28;20046;-36
2022/09/09 08:53:50;;;;;;;6.88;2.13;;;17.60;99.90;;;;;;4987808;28;20070;-38
2022/09/09 08:56:23;;;;;;;5.40;2.10;;;17.60;99.90;;;;;;4986365;28;20515;-37
2022/09/09 08:58:53;;;;;;;5.95;1.50;;;17.60;99.90;;;;;;4987625;28;20113;-36
2022/09/09 09:01:40;;;;;;;4.57;1.80;;;17.60;99.90;;;;;;4987815;28;20070;-36
2022/09/09 09:04:17;;;;;;;6.30;1.77;;;17.60;99.90;;;;;;4983118;28;20042;-44
2022/09/09 09:07:01;;;;;;;4.35;1.85;;;17.60;99.90;;;;;;4987730;28;20077;-37
2022/09/09 09:09:51;;;;;;;7.32;1.95;;;17.60;99.90;;;;;;4989925;28;20046;-38
2022/09/09 09:12:21;;;;;;;7.80;1.95;;;17.70;99.90;;;;;;4983596;28;20054;-37
2022/09/09 09:14:48;;;;;;;5.85;1.38;;;17.80;99.90;;;;;;4982544;28;20132;-37
2022/09/09 09:17:20;;;;;;;4.55;1.58;;;17.80;99.90;;;;;;4986068;28;20042;-36
2022/09/09 09:19:47;;;;;;;4.93;1.30;;;17.80;99.90;;;;;;4987274;28;20038;-38
2022/09/09 09:22:21;;;;;;;5.90;1.20;;;17.70;99.90;;;;;;4987629;28;20503;-37
2022/09/09 09:24:55;;;;;;;3.60;1.20;;;17.80;99.90;;;;;;4984913;28;20504;-38
2022/09/09 09:27:51;;;;;;;4.97;1.58;;;17.80;99.90;;;;;;4988310;28;20065;-36
2022/09/09 09:30:26;;;;;;;3.13;1.10;;;17.90;99.90;;;;;;4985612;28;20100;-38
2022/09/09 09:33:05;;;;;;;2.78;1.08;;;18.10;99.90;;;;;;4985247;28;20046;-38
2022/09/09 09:35:31;;;;;;;5.95;1.10;;;18.40;99.90;;;;;;4983771;28;20046;-36
2022/09/09 09:38:00;;;;;;;6.53;1.30;;;18.60;99.90;;;;;;4987929;28;20538;-37
2022/09/09 09:40:26;;;;;;;4.18;1.13;;;18.70;99.90;;;;;;4986773;28;20114;-38
2022/09/09 09:42:55;;;;;;;3.92;0.90;;;18.70;99.90;;;;;;4989600;28;20034;-36
2022/09/09 09:45:34;;;;;;;4.30;1.35;;;18.50;99.90;;;;;;4988565;28;20117;-37
2022/09/09 09:48:04;;;;;;;3.65;1.05;;;18.50;99.90;;;;;;4987034;28;20038;-37
2022/09/09 09:50:32;;;;;;;4.05;1.05;;;18.40;99.90;;;;;;4986670;28;20497;-37
2022/09/09 09:53:01;;;;;;;6.20;1.13;;;18.50;99.90;;;;;;4986975;28;20038;-37
2022/09/09 09:55:29;;;;;;;4.25;1.00;;;18.40;99.90;;;;;;4987942;28;20042;-36
2022/09/09 09:58:02;;;;;;;6.45;1.40;;;18.40;99.90;;;;;;4985691;28;20122;-38
2022/09/09 10:00:27;;;;;;;3.10;1.20;;;18.40;99.90;;;;;;4988058;28;20045;-38
2022/09/09 10:02:53;;;;;;;6.93;1.95;;;18.30;99.90;;;;;;4984976;28;20455;-38
2022/09/09 10:05:20;;;;;;;6.95;1.35;;;18.30;99.90;;;;;;4987042;28;20388;-38
2022/09/09 10:07:46;;;;;;;7.32;1.10;;;18.20;99.90;;;;;;4986260;28;20133;-38
2022/09/09 10:10:35;;;;;;;5.03;0.98;;;18.20;99.90;;;;;;4986018;28;20507;-38
2022/09/09 10:13:11;;;;;;;4.20;1.23;;;18.10;99.90;;;;;;4984855;28;20450;-38
2022/09/09 10:15:55;;;;;;;5.18;1.10;;;18.10;99.90;;;;;;4984961;28;20077;-38
2022/09/09 10:18:36;;;;;;;6.82;1.60;;;18.10;99.90;;;;;;4983842;28;20039;-38
2022/09/09 10:21:27;;;;;;;5.82;1.00;;;18.10;99.90;;;;;;4986496;28;20065;-37
2022/09/09 10:23:59;;;;;;;7.63;1.83;;;18.10;99.90;;;;;;4986022;28;20046;-37
2022/09/09 10:26:32;;;;;;;7.13;1.08;;;18.10;99.90;;;;;;4984053;28;20084;-37
2022/09/09 10:29:27;;;;;;;5.03;1.20;;;18.10;99.90;;;;;;4983132;28;20042;-38
2022/09/09 10:32:07;;;;;;;4.20;0.93;;;18.10;99.90;;;;;;4986914;28;20038;-38
2022/09/09 10:34:42;;;;;;;4.47;0.98;;;18.20;99.90;;;;;;4984271;28;20089;-38
2022/09/09 10:37:58;;;;;;;2.88;0.88;;;18.20;99.90;;;;;;4983769;28;20581;-38
2022/09/09 10:40:57;;;;;;;8.02;1.40;;;18.20;99.90;;;;;;4965758;28;20054;-38
2022/09/09 10:43:39;;;;;;;6.22;1.10;;;18.10;99.90;;;;;;4980858;28;20046;-38
2022/09/09 10:46:35;;;;;;;3.65;1.15;;;18.10;99.90;;;;;;4986066;28;20143;-37
2022/09/09 10:49:23;;;;;;;8.00;1.75;;;18.10;99.90;;;;;;4984303;28;20042;-37
2022/09/09 10:51:54;;;;;;;4.30;1.08;;;18.10;99.90;;;;;;4982356;28;20042;-38
2022/09/09 10:54:40;;;;;;;3.83;1.20;;;18.10;99.90;;;;;;4982623;28;20092;-37
2022/09/09 10:57:31;;;;;;;2.80;1.10;;;18.10;99.90;;;;;;5001781;28;20054;-37
2022/09/09 11:00:04;;;;;;;5.00;1.00;;;18.10;99.90;;;;;;4978388;28;20621;-37
2022/09/09 11:02:33;;;;;;;2.85;0.75;;;18.20;99.90;;;;;;4982165;28;20072;-37
2022/09/09 11:05:04;;;;;;;5.10;1.00;;;18.20;99.90;;;;;;4981172;28;20042;-37
2022/09/09 11:07:48;;;;;;;5.18;1.40;;;18.30;99.90;;;;;;4987844;28;20042;-36
2022/09/09 11:10:52;;;;;;;6.35;1.00;;;18.40;99.90;;;;;;4983998;28;20058;-37
2022/09/09 11:13:39;;;;;;;8.25;1.10;;;18.50;99.90;;;;;;4989127;28;20565;-38
2022/09/09 11:16:29;;;;;;;7.07;1.20;;;18.80;99.90;;;;;;4988681;28;20158;-36
2022/09/09 11:19:04;;;;;;;4.75;1.17;;;18.90;99.90;;;;;;4983506;28;20542;-37
2022/09/09 11:21:37;;;;;;;7.68;1.13;;;19.00;99.90;;;;;;4988717;28;20043;-39
2022/09/09 11:24:10;;;;;;;6.18;1.23;;;19.00;99.90;;;;;;4989467;28;20034;-38
2022/09/09 11:26:46;;;;;;;4.50;1.17;;;19.10;99.90;;;;;;4985155;28;20042;-38
2022/09/09 11:29:40;;;;;;;3.85;1.05;;;19.30;99.90;;;;;;4988473;28;20046;-37
2022/09/09 11:32:15;;;;;;;3.13;0.80;;;19.60;99.90;;;;;;4991515;28;20170;-38
2022/09/09 11:34:53;;;;;;;4.45;0.80;;;19.90;99.90;;;;;;4990222;28;20046;-38
2022/09/09 11:37:53;;;;;;;5.00;0.88;;;20.10;99.90;;;;;;4988350;28;20053;-37
2022/09/09 11:40:27;;;;;;;4.18;1.10;;;20.10;99.90;;;;;;4988986;28;20498;-38
2022/09/09 11:43:05;;;;;;;3.63;0.90;;;20.10;99.90;;;;;;4987667;28;20100;-37
2022/09/09 11:45:33;;;;;;;3.45;0.80;;;20.00;99.90;;;;;;4989352;28;20085;-38
2022/09/09 11:48:00;;;;;;;4.35;1.15;;;19.90;99.80;;;;;;4991111;28;20038;-39
2022/09/09 11:50:28;;;;;;;3.55;0.90;;;19.80;99.90;;;;;;4985720;28;20582;-37
2022/09/09 11:53:13;;;;;;;4.88;1.00;;;19.80;99.90;;;;;;4987984;28;20137;-36
2022/09/09 11:55:39;;;;;;;4.55;1.17;;;19.70;99.90;;;;;;4978045;28;20058;-37
2022/09/09 11:58:16;;;;;;;5.28;1.15;;;19.60;99.90;;;;;;4988383;28;20040;-38
2022/09/09 12:00:47;;;;;;;6.60;0.98;;;19.50;99.90;;;;;;4987092;28;20038;-37
2022/09/09 12:03:42;;;;;;;4.97;1.10;;;19.40;99.90;;;;;;4988310;28;20391;-37
2022/09/09 12:06:14;;;;;;;4.43;0.93;;;19.20;99.90;;;;;;4987553;28;20047;-46
2022/09/09 12:08:43;;;;;;;3.80;0.80;;;19.10;99.90;;;;;;4989321;28;20472;-37
2022/09/09 12:11:09;;;;;;;2.85;0.90;;;19.10;99.90;;;;;;4988349;28;20096;-39
2022/09/09 12:13:36;;;;;;;2.75;0.70;;;19.30;99.90;;;;;;4988505;28;20084;-38
2022/09/09 12:16:05;;;;;;;5.57;1.05;;;19.60;99.90;;;;;;4987930;28;20081;-38
2022/09/09 12:18:44;;;;;;;3.83;0.70;;;19.90;99.90;;;;;;4991347;28;20500;-37
2022/09/09 12:21:38;;;;;;;6.03;0.70;;;20.20;99.90;;;;;;4990223;28;20054;-37
2022/09/09 12:24:12;;;;;;;6.07;1.13;;;20.30;99.90;;;;;;4985125;28;20440;-38
2022/09/09 12:26:53;;;;;;;2.55;0.63;;;20.30;99.90;;;;;;4987650;28;20041;-38
2022/09/09 12:29:19;;;;;;;2.80;0.93;;;20.30;99.90;;;;;;4987816;28;20464;-37
2022/09/09 12:32:07;;;;;;;7.32;1.02;;;20.20;99.90;;;;;;4989386;28;20125;-37
2022/09/09 12:34:38;;;;;;;2.63;0.65;;;20.30;99.90;;;;;;4989220;28;20045;-38
2022/09/09 12:37:33;;;;;;;4.88;1.08;;;20.30;99.90;;;;;;4985530;28;20077;-38
2022/09/09 12:40:01;;;;;;;5.80;0.80;;;20.20;99.90;;;;;;4983594;28;20054;-37
2022/09/09 12:42:27;;;;;;;4.28;0.85;;;20.10;99.90;;;;;;4990432;28;20558;-37
2022/09/09 12:44:57;;;;;;;3.47;0.70;;;19.90;99.90;;;;;;4988254;28;20148;-37
2022/09/09 12:47:51;;;;;;;3.72;0.82;;;19.70;99.90;;;;;;4990088;28;20046;-37
2022/09/09 12:50:19;;;;;;;4.25;1.00;;;19.30;99.90;;;;;;4985421;28;20500;-37
2022/09/09 12:52:46;;;;;;;3.10;0.80;;;19.10;99.90;;;;;;4985727;28;20042;-37
2022/09/09 12:55:19;;;;;;;3.55;1.08;;;19.30;99.90;;;;;;4985390;28;20073;-38
2022/09/09 12:57:45;;;;;;;2.25;0.70;;;19.60;99.90;;;;;;4988129;28;20049;-37
2022/09/09 13:00:20;;;;;;;3.63;1.02;;;19.60;99.90;;;;;;4988147;28;20053;-39
2022/09/09 13:03:10;;;;;;;3.60;1.00;;;19.40;99.90;;;;;;4988831;28;20081;-37
2022/09/09 13:05:41;;;;;;;6.47;1.40;;;19.20;99.90;;;;;;4980517;28;20061;-37
2022/09/09 13:08:11;;;;;;;4.38;1.08;;;19.00;99.90;;;;;;4986294;28;20034;-38
2022/09/09 13:10:56;;;;;;;5.03;1.20;;;18.90;99.90;;;;;;4982460;28;20535;-37
2022/09/09 13:13:34;;;;;;;2.03;0.80;;;19.10;99.90;;;;;;4972447;28;20042;-38
2022/09/09 13:16:01;;;;;;;4.22;0.93;;;19.80;99.90;;;;;;4974838;28;20042;-37
2022/09/09 13:18:36;;;;;;;4.93;1.00;;;20.20;99.90;;;;;;4974132;28;20046;-37